createdAt,value
2018-02-20T00:00:41.892Z,2.80
2018-02-20T00:03:10.154Z,2.80
2018-02-20T00:05:37.612Z,2.70
2018-02-20T00:08:05.076Z,2.80
2018-02-20T00:10:33.315Z,2.70
2018-02-20T00:13:00.776Z,2.70
2018-02-20T00:15:28.361Z,2.70
2018-02-20T00:17:55.914Z,2.70
2018-02-20T00:20:23.385Z,2.70
2018-02-20T00:22:51.654Z,2.70
2018-02-20T00:25:19.985Z,2.70
2018-02-20T00:27:48.182Z,2.70
2018-02-20T00:30:15.641Z,2.60
2018-02-20T00:32:43.121Z,2.70
2018-02-20T00:35:11.362Z,2.60
2018-02-20T00:37:38.829Z,2.60
2018-02-20T00:40:06.298Z,2.60
2018-02-20T00:42:35.273Z,2.60
2018-02-20T00:45:02.746Z,2.50
2018-02-20T00:47:30.298Z,2.50
2018-02-20T00:49:57.863Z,2.40
2018-02-20T00:52:25.329Z,2.40
2018-02-20T00:54:53.581Z,2.40
2018-02-20T00:57:21.058Z,2.40
2018-02-20T00:59:48.541Z,2.40
2018-02-20T01:02:16.769Z,2.40
2018-02-20T01:04:44.396Z,2.30
2018-02-20T01:07:11.862Z,2.30
2018-02-20T01:09:39.326Z,2.20
2018-02-20T01:12:06.845Z,2.10
2018-02-20T01:14:35.086Z,2.00
2018-02-20T01:17:02.654Z,2.00
2018-02-20T01:19:30.330Z,2.00
2018-02-20T01:21:58.610Z,2.10
2018-02-20T01:24:26.840Z,2.10
2018-02-20T01:26:54.373Z,2.10
2018-02-20T01:29:21.841Z,2.10
2018-02-20T01:31:49.353Z,2.10
2018-02-20T01:34:17.578Z,2.10
2018-02-20T01:36:45.054Z,2.10
2018-02-20T01:39:12.578Z,2.20
2018-02-20T01:41:40.081Z,2.20
2018-02-20T01:44:07.559Z,2.20
2018-02-20T01:46:35.795Z,2.10
2018-02-20T01:49:03.261Z,2.10
2018-02-20T01:51:30.725Z,2.10
2018-02-20T01:53:58.185Z,2.10
2018-02-20T01:56:25.680Z,2.10
2018-02-20T01:58:53.149Z,2.20
2018-02-20T02:01:20.628Z,2.20
2018-02-20T02:03:48.127Z,2.20
2018-02-20T02:06:16.365Z,2.20
2018-02-20T02:08:43.832Z,2.10
2018-02-20T02:11:11.295Z,2.20
2018-02-20T02:13:38.861Z,2.30
2018-02-20T02:16:06.471Z,2.30
2018-02-20T02:18:33.946Z,2.30
2018-02-20T02:21:01.410Z,2.30
2018-02-20T02:23:28.877Z,2.30
2018-02-20T02:26:02.057Z,2.30
2018-02-20T02:28:29.541Z,2.30
2018-02-20T02:30:57.015Z,2.20
2018-02-20T02:33:25.280Z,2.10
2018-02-20T02:35:52.831Z,2.10
2018-02-20T02:38:22.232Z,2.10
2018-02-20T02:40:49.796Z,2.10
2018-02-20T02:43:17.257Z,2.10
2018-02-20T02:45:44.739Z,2.10
2018-02-20T02:48:12.260Z,2.20
2018-02-20T02:50:39.819Z,2.10
2018-02-20T02:53:07.384Z,2.00
2018-02-20T02:55:34.849Z,2.00
2018-02-20T02:58:03.108Z,2.00
2018-02-20T03:00:31.352Z,2.10
2018-02-20T03:02:58.829Z,2.00
2018-02-20T03:05:26.301Z,2.00
2018-02-20T03:07:53.766Z,1.90
2018-02-20T03:10:21.316Z,1.90
2018-02-20T03:12:48.877Z,1.80
2018-02-20T03:15:16.439Z,1.80
2018-02-20T03:17:44.112Z,1.90
2018-02-20T03:20:12.338Z,1.90
2018-02-20T03:22:39.809Z,1.90
2018-02-20T03:25:07.336Z,1.90
2018-02-20T03:27:34.813Z,1.90
2018-02-20T03:30:02.302Z,1.90
2018-02-20T03:32:29.778Z,1.90
2018-02-20T03:34:58.010Z,2.00
2018-02-20T03:37:25.512Z,1.90
2018-02-20T03:39:53.742Z,1.80
2018-02-20T03:42:21.218Z,1.70
2018-02-20T03:44:48.686Z,1.70
2018-02-20T03:47:16.156Z,1.80
2018-02-20T03:49:44.390Z,1.90
2018-02-20T03:52:11.865Z,1.80
2018-02-20T03:54:39.427Z,1.80
2018-02-20T03:57:07.731Z,1.70
2018-02-20T03:59:35.964Z,1.60
2018-02-20T04:02:03.421Z,1.50
2018-02-20T04:04:30.985Z,1.60
2018-02-20T04:06:58.448Z,1.60
2018-02-20T04:09:25.924Z,1.70
2018-02-20T04:11:54.177Z,1.60
2018-02-20T04:14:21.636Z,1.60
2018-02-20T04:16:50.002Z,1.50
2018-02-20T04:19:17.466Z,1.50
2018-02-20T04:21:44.929Z,1.50
2018-02-20T04:24:12.485Z,1.40
2018-02-20T04:26:40.046Z,1.40
2018-02-20T04:29:07.609Z,1.30
2018-02-20T04:31:35.170Z,1.20
2018-02-20T04:34:02.726Z,1.20
2018-02-20T04:36:30.200Z,1.20
2018-02-20T04:38:57.689Z,1.30
2018-02-20T04:41:25.198Z,1.20
2018-02-20T04:43:52.754Z,1.30
2018-02-20T04:46:21.030Z,1.20
2018-02-20T04:48:49.264Z,1.20
2018-02-20T04:51:16.768Z,1.20
2018-02-20T04:53:44.240Z,1.20
2018-02-20T04:56:12.498Z,1.40
2018-02-20T04:58:40.822Z,1.40
2018-02-20T05:01:08.300Z,1.40
2018-02-20T05:03:35.786Z,1.40
2018-02-20T05:06:03.278Z,1.40
2018-02-20T05:08:30.776Z,1.30
2018-02-20T05:10:58.250Z,1.30
2018-02-20T05:13:25.705Z,1.40
2018-02-20T05:15:53.264Z,1.40
2018-02-20T05:18:22.236Z,1.50
2018-02-20T05:20:49.693Z,1.50
2018-02-20T05:23:17.152Z,1.50
2018-02-20T05:25:44.634Z,1.40
2018-02-20T05:28:12.109Z,1.30
2018-02-20T05:30:40.376Z,1.30
2018-02-20T05:33:07.846Z,1.20
2018-02-20T05:35:36.079Z,1.20
2018-02-20T05:38:03.569Z,1.20
2018-02-20T05:40:31.794Z,1.30
2018-02-20T05:42:59.385Z,1.30
2018-02-20T05:45:26.858Z,1.30
2018-02-20T05:47:55.106Z,1.20
2018-02-20T05:50:22.577Z,1.10
2018-02-20T05:52:50.054Z,1.10
2018-02-20T05:55:18.362Z,1.00
2018-02-20T05:57:45.825Z,1.00
2018-02-20T06:00:13.292Z,0.90
2018-02-20T06:02:40.774Z,0.90
2018-02-20T06:05:08.338Z,0.90
2018-02-20T06:07:35.801Z,0.90
2018-02-20T06:10:03.283Z,0.90
2018-02-20T06:12:31.509Z,0.90
2018-02-20T06:14:58.998Z,0.90
2018-02-20T06:17:27.225Z,1.00
2018-02-20T06:19:54.693Z,0.90
2018-02-20T06:22:22.173Z,1.00
2018-02-20T06:24:49.628Z,1.10
2018-02-20T06:27:17.102Z,1.10
2018-02-20T06:29:45.366Z,1.00
2018-02-20T06:32:12.910Z,0.90
2018-02-20T06:34:40.378Z,1.00
2018-02-20T06:37:07.853Z,1.00
2018-02-20T06:39:36.075Z,1.00
2018-02-20T06:42:03.550Z,0.90
2018-02-20T06:44:31.014Z,1.00
2018-02-20T06:46:58.475Z,1.10
2018-02-20T06:49:25.988Z,1.10
2018-02-20T06:51:53.526Z,1.10
2018-02-20T06:54:21.730Z,1.10
2018-02-20T06:56:49.245Z,1.10
2018-02-20T06:59:17.502Z,1.10
2018-02-20T07:01:45.062Z,1.00
2018-02-20T07:04:12.528Z,0.90
2018-02-20T07:06:40.129Z,1.00
2018-02-20T07:09:07.605Z,1.00
2018-02-20T07:11:35.069Z,1.00
2018-02-20T07:14:02.564Z,1.00
2018-02-20T07:16:30.830Z,1.10
2018-02-20T07:18:58.294Z,1.10
2018-02-20T07:21:25.841Z,1.20
2018-02-20T07:23:53.308Z,1.20
2018-02-20T07:26:21.533Z,1.30
2018-02-20T07:28:49.002Z,1.30
2018-02-20T07:31:16.468Z,1.30
2018-02-20T07:33:43.927Z,1.40
2018-02-20T07:36:12.904Z,1.60
2018-02-20T07:38:40.373Z,1.60
2018-02-20T07:41:07.900Z,1.70
2018-02-20T07:43:35.394Z,1.90
2018-02-20T07:46:02.890Z,2.00
2018-02-20T07:48:31.116Z,2.30
2018-02-20T07:50:58.591Z,2.20
2018-02-20T07:53:26.150Z,2.30
2018-02-20T07:55:53.710Z,2.30
2018-02-20T07:58:21.260Z,2.20
2018-02-20T08:00:48.770Z,2.40
2018-02-20T08:03:16.233Z,2.40
2018-02-20T08:05:43.796Z,2.50
2018-02-20T08:08:11.257Z,2.60
2018-02-20T08:10:38.721Z,2.70
2018-02-20T08:13:06.194Z,2.90
2018-02-20T08:15:33.673Z,2.90
2018-02-20T08:18:01.158Z,2.90
2018-02-20T08:20:28.650Z,2.80
2018-02-20T08:22:56.126Z,2.80
2018-02-20T08:25:23.590Z,2.80
2018-02-20T08:27:51.145Z,2.80
2018-02-20T08:30:18.607Z,2.90
2018-02-20T08:32:46.067Z,3.20
2018-02-20T08:35:13.604Z,3.30
2018-02-20T08:37:41.067Z,3.20
2018-02-20T08:40:08.524Z,3.10
2018-02-20T08:42:36.011Z,3.10
2018-02-20T08:45:03.482Z,3.10
2018-02-20T08:47:30.967Z,3.10
2018-02-20T08:49:58.421Z,3.10
2018-02-20T08:52:25.922Z,3.40
2018-02-20T08:54:53.493Z,3.50
2018-02-20T08:57:20.969Z,3.60
2018-02-20T08:59:49.194Z,3.30
2018-02-20T09:02:16.666Z,3.20
2018-02-20T09:04:44.138Z,3.20
2018-02-20T09:07:11.624Z,3.40
2018-02-20T09:09:39.146Z,3.60
2018-02-20T09:12:06.600Z,3.70
2018-02-20T09:14:34.160Z,3.90
2018-02-20T09:17:01.630Z,4.00
2018-02-20T09:19:29.861Z,4.00
2018-02-20T09:21:57.337Z,3.90
2018-02-20T09:24:24.809Z,3.80
2018-02-20T09:26:52.267Z,3.80
2018-02-20T09:29:19.742Z,3.50
2018-02-20T09:31:47.286Z,3.40
2018-02-20T09:34:15.523Z,3.50
2018-02-20T09:36:42.988Z,3.40
2018-02-20T09:39:10.473Z,3.50
2018-02-20T09:41:37.923Z,3.70
2018-02-20T09:44:05.380Z,3.70
2018-02-20T09:46:32.844Z,3.80
2018-02-20T09:49:01.110Z,4.00
2018-02-20T09:51:28.580Z,4.00
2018-02-20T09:53:56.130Z,4.20
2018-02-20T09:56:23.601Z,4.50
2018-02-20T09:58:51.853Z,4.80
2018-02-20T10:01:19.326Z,4.80
2018-02-20T10:03:46.878Z,4.90
2018-02-20T10:06:14.351Z,5.20
2018-02-20T10:08:42.582Z,5.50
2018-02-20T10:11:10.044Z,5.40
2018-02-20T10:13:37.512Z,5.80
2018-02-20T10:16:05.765Z,6.00
2018-02-20T10:18:33.225Z,5.90
2018-02-20T10:21:00.689Z,6.10
2018-02-20T10:23:28.166Z,6.70
2018-02-20T10:25:55.719Z,7.10
2018-02-20T10:28:23.193Z,7.60
2018-02-20T10:30:51.421Z,9.10
2018-02-20T10:33:18.884Z,9.00
2018-02-20T10:35:46.350Z,9.80
2018-02-20T10:38:13.833Z,10.30
2018-02-20T10:40:41.324Z,10.90
2018-02-20T10:43:08.822Z,11.40
2018-02-20T10:45:36.322Z,11.80
2018-02-20T10:48:04.596Z,12.70
2018-02-20T10:50:32.866Z,12.90
2018-02-20T10:53:01.149Z,12.60
2018-02-20T10:55:29.456Z,12.80
2018-02-20T10:57:56.940Z,12.80
2018-02-20T11:00:24.437Z,13.50
2018-02-20T11:02:52.713Z,13.80
2018-02-20T11:05:20.975Z,13.70
2018-02-20T11:07:48.556Z,13.70
2018-02-20T11:10:16.818Z,14.90
2018-02-20T11:12:45.116Z,15.20
2018-02-20T11:15:12.670Z,15.10
2018-02-20T11:17:40.937Z,15.70
2018-02-20T11:20:09.218Z,15.60
2018-02-20T11:22:37.473Z,15.10
2018-02-20T11:25:04.969Z,15.10
2018-02-20T11:27:32.461Z,15.20
2018-02-20T11:29:59.965Z,14.80
2018-02-20T11:32:28.230Z,13.30
2018-02-20T11:34:56.507Z,13.60
2018-02-20T11:37:24.772Z,14.00
2018-02-20T11:39:52.348Z,13.90
2018-02-20T11:42:20.614Z,14.80
2018-02-20T11:44:48.881Z,14.70
2018-02-20T11:47:16.457Z,14.70
2018-02-20T11:49:44.838Z,15.80
2018-02-20T11:52:13.105Z,15.90
2018-02-20T11:54:41.421Z,16.40
2018-02-20T11:57:08.926Z,16.40
2018-02-20T11:59:36.407Z,17.10
2018-02-20T12:02:04.678Z,17.80
2018-02-20T12:04:32.936Z,18.30
2018-02-20T12:07:00.434Z,18.20
2018-02-20T12:09:27.924Z,18.20
2018-02-20T12:11:55.534Z,17.90
2018-02-20T12:14:23.809Z,18.40
2018-02-20T12:16:52.089Z,18.10
2018-02-20T12:19:20.364Z,18.20
2018-02-20T12:21:48.634Z,17.80
2018-02-20T12:24:16.936Z,17.40
2018-02-20T12:26:44.442Z,17.40
2018-02-20T12:29:12.012Z,17.80
2018-02-20T12:31:40.282Z,16.70
2018-02-20T12:34:07.787Z,16.60
2018-02-20T12:36:35.303Z,15.70
2018-02-20T12:39:03.569Z,14.40
2018-02-20T12:41:31.153Z,14.40
2018-02-20T12:43:59.429Z,13.30
2018-02-20T12:46:27.717Z,12.70
2018-02-20T12:48:55.265Z,12.60
2018-02-20T12:51:23.522Z,12.50
2018-02-20T12:53:51.813Z,11.90
2018-02-20T12:56:19.377Z,11.90
2018-02-20T12:58:46.930Z,11.90
2018-02-20T13:01:14.430Z,11.30
2018-02-20T13:03:41.934Z,10.50
2018-02-20T13:06:10.196Z,10.10
2018-02-20T13:08:37.785Z,10.00
2018-02-20T13:11:06.046Z,9.90
2018-02-20T13:13:34.301Z,9.80
2018-02-20T13:16:03.298Z,9.40
2018-02-20T13:18:30.798Z,9.40
2018-02-20T13:20:58.342Z,9.10
2018-02-20T13:23:26.606Z,8.90
2018-02-20T13:25:54.863Z,9.10
2018-02-20T13:28:22.357Z,9.00
2018-02-20T13:30:49.850Z,9.50
2018-02-20T13:33:17.367Z,9.70
2018-02-20T13:35:45.621Z,9.70
2018-02-20T13:38:13.109Z,9.60
2018-02-20T13:40:40.618Z,9.70
2018-02-20T13:43:08.095Z,9.20
2018-02-20T13:45:35.675Z,8.70
2018-02-20T13:48:03.936Z,8.00
2018-02-20T13:50:32.196Z,7.60
2018-02-20T13:52:59.680Z,7.50
2018-02-20T13:55:27.932Z,7.50
2018-02-20T13:57:55.441Z,7.50
2018-02-20T14:00:23.037Z,7.50
2018-02-20T14:02:50.520Z,7.40
2018-02-20T14:05:18.784Z,7.40
2018-02-20T14:07:46.264Z,7.30
2018-02-20T14:10:14.537Z,7.50
2018-02-20T14:12:42.804Z,7.60
2018-02-20T14:15:11.085Z,7.90
2018-02-20T14:17:39.373Z,8.20
2018-02-20T14:20:06.861Z,8.10
2018-02-20T14:22:34.354Z,8.40
2018-02-20T14:25:01.837Z,8.40
2018-02-20T14:27:30.100Z,8.60
2018-02-20T14:29:58.384Z,8.40
2018-02-20T14:32:26.654Z,8.30
2018-02-20T14:34:54.904Z,8.00
2018-02-20T14:37:22.384Z,7.90
2018-02-20T14:39:50.641Z,8.00
2018-02-20T14:42:18.129Z,7.90
2018-02-20T14:44:46.415Z,7.60
2018-02-20T14:47:13.900Z,7.50
2018-02-20T14:49:41.384Z,7.30
2018-02-20T14:52:08.870Z,7.10
2018-02-20T14:54:37.165Z,7.00
2018-02-20T14:57:04.809Z,6.90
2018-02-20T14:59:32.378Z,6.90
2018-02-20T15:01:59.866Z,6.70
2018-02-20T15:04:27.352Z,6.70
2018-02-20T15:06:54.866Z,6.70
2018-02-20T15:09:22.350Z,6.60
2018-02-20T15:11:49.840Z,6.50
2018-02-20T15:14:17.414Z,6.40
2018-02-20T15:16:45.667Z,6.10
2018-02-20T15:19:13.156Z,6.10
2018-02-20T15:21:40.641Z,6.10
2018-02-20T15:24:08.165Z,6.00
2018-02-20T15:26:36.416Z,6.00
2018-02-20T15:29:03.905Z,5.90
2018-02-20T15:31:31.393Z,6.20
2018-02-20T15:33:58.880Z,6.40
2018-02-20T15:36:26.502Z,6.70
2018-02-20T15:38:53.990Z,6.80
2018-02-20T15:41:21.473Z,7.10
2018-02-20T15:43:49.729Z,9.10
2018-02-20T15:46:17.221Z,9.00
2018-02-20T15:48:45.509Z,10.60
2018-02-20T15:51:13.006Z,10.60
2018-02-20T15:53:40.770Z,11.20
2018-02-20T15:56:08.269Z,11.50
2018-02-20T15:58:36.576Z,10.70
2018-02-20T16:01:04.080Z,10.60
2018-02-20T16:03:31.583Z,10.20
2018-02-20T16:05:59.086Z,9.40
2018-02-20T16:08:26.582Z,8.40
2018-02-20T16:10:54.858Z,7.10
2018-02-20T16:13:23.109Z,6.70
2018-02-20T16:15:51.078Z,6.60
2018-02-20T16:18:18.538Z,6.30
2018-02-20T16:20:46.110Z,6.10
2018-02-20T16:23:14.366Z,5.80
2018-02-20T16:25:41.859Z,5.70
2018-02-20T16:28:09.345Z,5.50
2018-02-20T16:30:36.858Z,5.30
2018-02-20T16:33:06.088Z,5.10
2018-02-20T16:35:33.581Z,5.10
2018-02-20T16:38:01.064Z,5.10
2018-02-20T16:40:29.367Z,4.90
2018-02-20T16:42:56.852Z,4.80
2018-02-20T16:45:24.346Z,4.80
2018-02-20T16:47:51.838Z,4.80
2018-02-20T16:50:19.341Z,4.70
2018-02-20T16:52:46.829Z,4.60
2018-02-20T16:55:15.116Z,4.50
2018-02-20T16:57:42.616Z,4.40
2018-02-20T17:00:10.136Z,4.50
2018-02-20T17:02:37.807Z,4.50
2018-02-20T17:05:05.299Z,4.50
2018-02-20T17:07:32.805Z,4.40
2018-02-20T17:10:00.365Z,4.50
2018-02-20T17:12:27.866Z,4.50
2018-02-20T17:14:55.390Z,4.50
2018-02-20T17:17:22.890Z,4.40
2018-02-20T17:19:50.484Z,4.40
2018-02-20T17:22:18.749Z,4.30
2018-02-20T17:24:46.236Z,4.30
2018-02-20T17:27:13.725Z,4.30
2018-02-20T17:29:41.228Z,4.20
2018-02-20T17:32:08.724Z,4.20
2018-02-20T17:34:36.251Z,4.20
2018-02-20T17:37:04.506Z,4.20
2018-02-20T17:39:32.068Z,4.10
2018-02-20T17:41:59.703Z,4.20
2018-02-20T17:44:27.313Z,4.10
2018-02-20T17:46:55.586Z,4.10
2018-02-20T17:49:23.837Z,4.10
2018-02-20T17:51:51.352Z,4.10
2018-02-20T17:54:18.836Z,4.10
2018-02-20T17:56:46.329Z,4.00
2018-02-20T17:59:14.575Z,4.00
2018-02-20T18:01:42.085Z,3.90
2018-02-20T18:04:09.635Z,3.90
2018-02-20T18:06:37.123Z,3.90
2018-02-20T18:09:04.632Z,3.80
2018-02-20T18:11:32.134Z,3.80
2018-02-20T18:13:59.671Z,3.80
2018-02-20T18:16:27.251Z,3.80
2018-02-20T18:18:54.770Z,3.80
2018-02-20T18:21:23.034Z,3.80
2018-02-20T18:23:50.569Z,3.70
2018-02-20T18:26:18.096Z,3.70
2018-02-20T18:28:45.640Z,3.70
2018-02-20T18:31:13.148Z,3.70
2018-02-20T18:33:40.668Z,3.60
2018-02-20T18:36:08.202Z,3.60
2018-02-20T18:38:36.510Z,3.50
2018-02-20T18:41:04.006Z,3.40
2018-02-20T18:43:31.597Z,3.50
2018-02-20T18:45:59.874Z,3.50
2018-02-20T18:48:27.570Z,3.40
2018-02-20T18:50:55.090Z,3.40
2018-02-20T18:53:23.355Z,3.30
2018-02-20T18:55:51.621Z,3.30
2018-02-20T18:58:19.126Z,3.30
2018-02-20T19:00:46.621Z,3.30
2018-02-20T19:03:14.124Z,3.30
2018-02-20T19:05:41.614Z,3.20
2018-02-20T19:08:09.105Z,3.20
2018-02-20T19:10:37.381Z,3.20
2018-02-20T19:13:05.648Z,3.30
2018-02-20T19:15:33.216Z,3.30
2018-02-20T19:18:00.723Z,3.30
2018-02-20T19:20:28.240Z,3.30
2018-02-20T19:22:56.535Z,3.20
2018-02-20T19:25:24.813Z,3.30
2018-02-20T19:27:52.312Z,3.30
2018-02-20T19:30:19.819Z,3.30
2018-02-20T19:32:48.110Z,3.30
2018-02-20T19:35:15.607Z,3.30
2018-02-20T19:37:43.112Z,3.20
2018-02-20T19:40:11.365Z,3.10
2018-02-20T19:42:38.871Z,3.10
2018-02-20T19:45:06.365Z,3.20
2018-02-20T19:47:33.863Z,3.10
2018-02-20T19:50:02.155Z,3.10
2018-02-20T19:52:29.677Z,3.00
2018-02-20T19:54:57.356Z,3.00
2018-02-20T19:57:24.884Z,3.00
2018-02-20T19:59:52.406Z,3.00
2018-02-20T20:02:19.910Z,3.00
2018-02-20T20:04:47.414Z,2.90
2018-02-20T20:07:14.995Z,2.90
2018-02-20T20:09:42.489Z,2.90
2018-02-20T20:12:11.460Z,2.90
2018-02-20T20:14:39.893Z,2.80
2018-02-20T20:17:07.386Z,2.90
2018-02-20T20:19:34.891Z,2.90
2018-02-20T20:22:03.158Z,2.90
2018-02-20T20:24:31.421Z,2.80
2018-02-20T20:26:58.917Z,2.80
2018-02-20T20:29:26.423Z,2.80
2018-02-20T20:31:53.919Z,2.80
2018-02-20T20:34:21.433Z,2.70
2018-02-20T20:36:49.505Z,2.70
2018-02-20T20:39:17.010Z,2.60
2018-02-20T20:41:44.675Z,2.60
2018-02-20T20:44:12.212Z,2.60
2018-02-20T20:46:40.526Z,2.60
2018-02-20T20:49:08.049Z,2.60
2018-02-20T20:51:36.319Z,2.70
2018-02-20T20:54:04.610Z,2.60
2018-02-20T20:56:32.865Z,2.50
2018-02-20T20:59:00.382Z,2.50
2018-02-20T21:01:27.885Z,2.50
2018-02-20T21:03:55.387Z,2.40
2018-02-20T21:06:22.884Z,2.40
2018-02-20T21:08:50.380Z,2.40
2018-02-20T21:11:17.877Z,2.40
2018-02-20T21:13:45.390Z,2.40
2018-02-20T21:16:12.885Z,2.40
2018-02-20T21:18:40.421Z,2.30
2018-02-20T21:21:07.941Z,2.30
2018-02-20T21:23:35.470Z,2.30
2018-02-20T21:26:02.984Z,2.30
2018-02-20T21:28:30.479Z,2.30
2018-02-20T21:30:57.968Z,2.20
2018-02-20T21:33:25.674Z,2.10
2018-02-20T21:35:53.215Z,2.10
2018-02-20T21:38:20.735Z,2.20
2018-02-20T21:40:48.261Z,2.20
2018-02-20T21:43:15.763Z,2.20
2018-02-20T21:45:43.338Z,2.30
2018-02-20T21:48:11.601Z,2.30
2018-02-20T21:50:39.875Z,2.30
2018-02-20T21:53:08.626Z,2.30
2018-02-20T21:55:36.154Z,2.20
2018-02-20T21:58:04.340Z,2.20
2018-02-20T22:00:32.691Z,2.10
2018-02-20T22:03:00.949Z,2.10
2018-02-20T22:05:29.357Z,2.10
2018-02-20T22:07:57.146Z,2.00
2018-02-20T22:10:24.650Z,2.10
2018-02-20T22:12:52.938Z,2.20
2018-02-20T22:15:21.217Z,2.20
2018-02-20T22:17:49.483Z,2.20
2018-02-20T22:20:16.997Z,2.10
2018-02-20T22:22:44.514Z,2.10
2018-02-20T22:25:12.019Z,2.20
2018-02-20T22:27:39.524Z,2.20
2018-02-20T22:30:08.576Z,2.20
2018-02-20T22:32:36.086Z,2.10
2018-02-20T22:35:03.634Z,2.20
2018-02-20T22:37:31.155Z,2.20
2018-02-20T22:39:58.669Z,2.20
2018-02-20T22:42:26.205Z,2.20
2018-02-20T22:44:54.476Z,2.20
2018-02-20T22:47:22.752Z,2.20
2018-02-20T22:49:51.035Z,2.20
2018-02-20T22:52:19.313Z,2.10
2018-02-20T22:54:46.827Z,2.10
2018-02-20T22:57:14.336Z,2.10
2018-02-20T22:59:41.837Z,2.00
2018-02-20T23:02:10.243Z,2.00
2018-02-20T23:04:37.767Z,2.00
2018-02-20T23:07:05.293Z,2.00
2018-02-20T23:09:32.802Z,2.00
2018-02-20T23:12:00.303Z,2.00
2018-02-20T23:14:27.834Z,2.00
2018-02-20T23:16:55.343Z,2.00
2018-02-20T23:19:22.841Z,2.00
2018-02-20T23:21:50.344Z,2.00
2018-02-20T23:24:18.515Z,2.00
2018-02-20T23:26:46.039Z,2.00
2018-02-20T23:29:13.539Z,2.10
2018-02-20T23:31:41.044Z,2.10
2018-02-20T23:34:08.576Z,2.10
2018-02-20T23:36:36.104Z,2.10
2018-02-20T23:39:05.453Z,2.00
2018-02-20T23:41:32.971Z,1.90
2018-02-20T23:44:00.486Z,1.90
2018-02-20T23:46:28.026Z,1.90
2018-02-20T23:48:55.522Z,1.90
2018-02-20T23:51:29.556Z,1.90
2018-02-20T23:53:57.074Z,1.90
2018-02-20T23:56:26.114Z,1.90
2018-02-20T23:58:53.630Z,1.90
